Time;durP1;ratioP1;P1;durP2;ratioP2;P2;SDS_P1;SDS_P2;PMS_P1;PMS_P2;Temp;Humidity;BMP_temperature;BMP_pressure;BME280_temperature;BME280_humidity;BME280_pressure;Samples;Min_cycle;Max_cycle;Signal;HPM_P1;HPM_P2
2022/11/28 00:00:52;;;;;;;;;;;23.90;36.50;;;;;;5155248;27;19923;-69
2022/11/28 00:03:18;;;;;;;;;;;24.00;36.60;;;;;;5136534;27;19930;-69
2022/11/28 00:05:43;;;;;;;;;;;23.90;36.50;;;;;;5135689;27;19930;-70
2022/11/28 00:08:09;;;;;;;;;;;23.90;36.50;;;;;;5136837;27;19919;-70
2022/11/28 00:10:37;;;;;;;;;;;23.90;36.60;;;;;;5154387;27;19919;-69
2022/11/28 00:13:03;;;;;;;;;;;23.90;36.50;;;;;;5136732;27;20463;-69
2022/11/28 00:15:28;;;;;;;;;;;23.90;36.50;;;;;;5119343;27;19980;-70
2022/11/28 00:17:54;;;;;;;;;;;23.90;36.50;;;;;;5136506;27;19925;-69
2022/11/28 00:20:19;;;;;;;;;;;24.00;36.50;;;;;;5136272;27;19953;-69
2022/11/28 00:22:45;;;;;;;;;;;24.00;36.50;;;;;;5136374;27;19923;-70
2022/11/28 00:25:10;;;;;;;;;;;24.00;36.50;;;;;;5136437;27;19948;-69
2022/11/28 00:27:36;;;;;;;;;;;24.10;36.50;;;;;;5154771;27;19919;-69
2022/11/28 00:30:01;;;;;;;;;;;24.00;36.40;;;;;;5154330;27;19923;-69
2022/11/28 00:32:27;;;;;;;;;;;24.00;36.50;;;;;;5136007;27;19919;-69
2022/11/28 00:34:52;;;;;;;;;;;24.10;36.60;;;;;;5154714;27;19923;-69
2022/11/28 00:37:18;;;;;;;;;;;24.00;36.50;;;;;;5154638;27;19923;-69
2022/11/28 00:39:43;;;;;;;;;;;24.00;36.50;;;;;;5136091;27;19930;-70
2022/11/28 00:42:09;;;;;;;;;;;24.10;36.50;;;;;;5154420;27;19919;-70
2022/11/28 00:44:35;;;;;;;;;;;24.10;36.50;;;;;;5135430;27;19934;-70
2022/11/28 00:47:01;;;;;;;;;;;24.10;36.50;;;;;;5135501;27;19919;-69
2022/11/28 00:49:26;;;;;;;;;;;24.10;36.40;;;;;;5136248;27;19927;-69
2022/11/28 00:51:52;;;;;;;;;;;24.20;36.50;;;;;;5135820;27;20003;-70
2022/11/28 00:54:17;;;;;;;;;;;24.10;36.40;;;;;;5135885;27;19934;-70
2022/11/28 00:56:43;;;;;;;;;;;24.10;36.40;;;;;;5154381;27;19919;-69
2022/11/28 00:59:08;;;;;;;;;;;24.20;36.40;;;;;;5154208;27;20017;-69
2022/11/28 01:01:36;;;;;;;;;;;24.10;36.40;;;;;;5135687;27;20009;-69
2022/11/28 01:04:03;;;;;;;;;;;24.20;36.50;;;;;;5154489;27;19983;-68
2022/11/28 01:06:30;;;;;;;;;;;24.10;36.40;;;;;;5154215;27;19919;-70
2022/11/28 01:08:57;;;;;;;;;;;24.10;36.50;;;;;;5154136;27;19944;-70
2022/11/28 01:11:23;;;;;;;;;;;24.00;36.60;;;;;;5154673;27;19973;-69
2022/11/28 01:13:48;;;;;;;;;;;24.00;36.80;;;;;;5135771;27;19966;-69
2022/11/28 01:16:14;;;;;;;;;;;23.90;36.90;;;;;;5153872;27;20370;-69
2022/11/28 01:18:40;;;;;;;;;;;23.70;37.00;;;;;;5154071;27;19926;-69
2022/11/28 01:21:06;;;;;;;;;;;23.70;37.20;;;;;;5130876;27;19923;-69
2022/11/28 01:23:32;;;;;;;;;;;23.70;37.30;;;;;;5131794;28;19967;-69
2022/11/28 01:25:57;;;;;;;;;;;23.60;37.40;;;;;;5131832;28;19924;-68
2022/11/28 01:28:23;;;;;;;;;;;23.70;37.40;;;;;;5131764;28;19919;-69
2022/11/28 01:30:48;;;;;;;;;;;23.70;37.30;;;;;;5132271;28;20015;-69
2022/11/28 01:33:14;;;;;;;;;;;23.80;37.20;;;;;;5131990;28;20056;-69
2022/11/28 01:35:39;;;;;;;;;;;23.90;37.10;;;;;;5133242;27;19927;-69
2022/11/28 01:38:05;;;;;;;;;;;24.00;37.10;;;;;;5131108;27;19927;-69
2022/11/28 01:40:30;;;;;;;;;;;23.90;36.90;;;;;;5132822;27;19923;-70
2022/11/28 01:42:56;;;;;;;;;;;24.00;36.90;;;;;;5133134;27;19994;-70
2022/11/28 01:45:23;;;;;;;;;;;24.10;36.90;;;;;;5132275;28;20279;-69
2022/11/28 01:47:50;;;;;;;;;;;24.10;36.80;;;;;;5133006;27;19927;-69
2022/11/28 01:50:16;;;;;;;;;;;24.10;36.70;;;;;;5131961;28;20410;-70
2022/11/28 01:52:44;;;;;;;;;;;24.10;36.60;;;;;;5131780;28;19920;-70
2022/11/28 01:55:11;;;;;;;;;;;24.10;36.70;;;;;;5131734;28;20025;-70
2022/11/28 01:57:37;;;;;;;;;;;24.20;36.70;;;;;;5132113;28;19991;-69
2022/11/28 02:00:07;;;;;;;;;;;24.20;36.70;;;;;;5131674;28;20367;-69
2022/11/28 02:02:36;;;;;;;;;;;24.10;36.70;;;;;;5133071;27;20291;-69
2022/11/28 02:05:01;;;;;;;;;;;24.10;36.80;;;;;;5131071;28;20002;-69
2022/11/28 02:07:27;;;;;;;;;;;24.10;36.80;;;;;;5131459;28;20010;-69
2022/11/28 02:09:52;;;;;;;;;;;24.10;36.90;;;;;;5132683;28;19972;-69
2022/11/28 02:12:24;;;;;;;;;;;24.00;36.90;;;;;;5132831;28;19923;-69
2022/11/28 02:15:05;;;;;;;;;;;23.90;36.90;;;;;;5132504;28;19919;-69
2022/11/28 02:20:32;;;;;;;;;;;23.90;37.20;;;;;;5109829;27;19912;-69
2022/11/28 02:23:17;;;;;;;;;;;23.90;37.30;;;;;;5108782;28;20388;-69
2022/11/28 02:26:02;;;;;;;;;;;23.80;37.30;;;;;;5108295;28;19935;-69
2022/11/28 02:28:48;;;;;;;;;;;23.80;37.30;;;;;;5108623;28;19994;-69
2022/11/28 02:31:33;;;;;;;;;;;23.70;37.30;;;;;;5108750;28;19924;-70
2022/11/28 02:34:02;;;;;;;;;;;23.70;37.40;;;;;;5108913;28;19927;-69
2022/11/28 02:36:30;;;;;;;;;;;23.70;37.50;;;;;;5108663;28;20429;-70
2022/11/28 02:39:16;;;;;;;;;;;23.70;37.60;;;;;;5109813;28;19998;-69
2022/11/28 02:44:28;;;;;;;;;;;23.70;37.50;;;;;;5110173;27;20371;-70
2022/11/28 02:46:59;;;;;;;;;;;23.70;37.60;;;;;;5109927;28;20015;-69
2022/11/28 02:49:27;;;;;;;;;;;23.70;37.60;;;;;;5109107;28;20374;-70
2022/11/28 02:51:56;;;;;;;;;;;23.70;37.60;;;;;;5109079;28;19990;-69
2022/11/28 02:54:22;;;;;;;;;;;23.70;37.70;;;;;;5108889;28;19924;-69
2022/11/28 02:56:49;;;;;;;;;;;23.70;37.70;;;;;;5108910;28;20010;-69
2022/11/28 02:59:24;;;;;;;;;;;23.70;37.70;;;;;;5108200;28;19920;-70
2022/11/28 03:01:49;;;;;;;;;;;23.70;37.80;;;;;;5108498;28;20198;-69
2022/11/28 03:04:23;;;;;;;;;;;23.60;37.70;;;;;;5109814;28;19920;-70
2022/11/28 03:09:39;;;;;;;;;;;23.60;37.80;;;;;;5128027;27;1848382;-69
2022/11/28 03:12:12;;;;;;;;;;;23.70;37.80;;;;;;5174642;27;20022;-70
2022/11/28 03:14:58;;;;;;;;;;;23.70;37.80;;;;;;5174721;27;20009;-69
2022/11/28 03:17:43;;;;;;;;;;;23.70;37.80;;;;;;5174475;27;19919;-69
2022/11/28 03:28:43;;;;;;;;;;;23.90;37.50;;;;;;5110074;27;19912;-69
2022/11/28 03:31:12;;;;;;;;;;;24.00;37.40;;;;;;5108819;28;19920;-69
2022/11/28 03:33:41;;;;;;;;;;;24.00;37.40;;;;;;5109109;28;19920;-69
2022/11/28 03:36:16;;;;;;;;;;;24.00;37.30;;;;;;5109175;28;19974;-69
2022/11/28 03:38:44;;;;;;;;;;;24.00;37.20;;;;;;5108754;28;20207;-69
2022/11/28 03:41:13;;;;;;;;;;;24.10;37.30;;;;;;5109081;28;19920;-70
2022/11/28 03:43:41;;;;;;;;;;;24.00;37.20;;;;;;5108979;28;20272;-69
2022/11/28 03:46:10;;;;;;;;;;;24.00;37.30;;;;;;5108471;28;19924;-70
2022/11/28 03:48:39;;;;;;;;;;;23.90;37.40;;;;;;5108010;28;19967;-69
2022/11/28 03:51:08;;;;;;;;;;;23.90;37.40;;;;;;5108483;28;19927;-69
2022/11/28 03:53:39;;;;;;;;;;;23.90;37.50;;;;;;5108999;28;19920;-69
2022/11/28 03:56:12;;;;;;;;;;;23.80;37.60;;;;;;5108507;28;19920;-69
2022/11/28 03:58:40;;;;;;;;;;;23.80;37.70;;;;;;5109718;28;19920;-69
2022/11/28 04:01:12;;;;;;;;;;;23.70;37.70;;;;;;5108793;28;19989;-69
2022/11/28 04:06:26;;;;;;;;;;;23.60;37.80;;;;;;5089718;28;19912;-69
2022/11/28 04:08:58;;;;;;;;;;;23.60;37.90;;;;;;5089717;28;20350;-69
2022/11/28 04:11:28;;;;;;;;;;;23.60;37.90;;;;;;5088791;28;19920;-69
2022/11/28 04:13:57;;;;;;;;;;;23.60;38.00;;;;;;5088511;28;20010;-69
2022/11/28 04:16:27;;;;;;;;;;;23.60;38.00;;;;;;5088768;28;19920;-70
2022/11/28 04:19:12;;;;;;;;;;;23.50;38.10;;;;;;5104640;28;19920;-69
2022/11/28 04:21:56;;;;;;;;;;;23.50;38.00;;;;;;5088620;28;20351;-69
2022/11/28 04:24:25;;;;;;;;;;;23.50;38.10;;;;;;5088380;28;20330;-69
2022/11/28 04:26:54;;;;;;;;;;;23.50;38.10;;;;;;5088165;28;19921;-69
2022/11/28 04:29:22;;;;;;;;;;;23.50;38.10;;;;;;5088426;28;19989;-69
2022/11/28 04:31:49;;;;;;;;;;;23.50;38.10;;;;;;5088127;28;19921;-69
2022/11/28 04:34:16;;;;;;;;;;;23.60;38.10;;;;;;5104993;28;19921;-69
2022/11/28 04:36:43;;;;;;;;;;;23.60;38.10;;;;;;5089391;28;20399;-69
2022/11/28 04:39:13;;;;;;;;;;;23.60;38.10;;;;;;5087924;28;19920;-69
2022/11/28 04:41:41;;;;;;;;;;;23.60;38.00;;;;;;5088180;28;19943;-70
2022/11/28 04:44:18;;;;;;;;;;;23.60;38.00;;;;;;5087801;28;19925;-69
2022/11/28 04:46:47;;;;;;;;;;;23.60;38.00;;;;;;5087155;28;19921;-69
2022/11/28 04:49:12;;;;;;;;;;;23.60;38.00;;;;;;5087369;28;19969;-68
2022/11/28 04:51:43;;;;;;;;;;;23.60;38.00;;;;;;5087663;28;19920;-69
2022/11/28 04:54:10;;;;;;;;;;;23.60;38.10;;;;;;5071056;28;19921;-70
2022/11/28 04:56:39;;;;;;;;;;;23.60;38.10;;;;;;5088001;28;20103;-69
2022/11/28 04:59:06;;;;;;;;;;;23.60;38.10;;;;;;5087902;28;19920;-69
2022/11/28 05:01:32;;;;;;;;;;;23.60;38.10;;;;;;5087528;28;20376;-69
2022/11/28 05:03:58;;;;;;;;;;;23.60;38.10;;;;;;5087578;28;20244;-69
2022/11/28 05:06:25;;;;;;;;;;;23.60;38.10;;;;;;5108879;28;20189;-69
2022/11/28 05:08:50;;;;;;;;;;;23.60;38.10;;;;;;5090528;28;19927;-70
2022/11/28 05:11:16;;;;;;;;;;;23.60;38.10;;;;;;5108063;28;19927;-69
2022/11/28 05:13:42;;;;;;;;;;;23.60;38.20;;;;;;5090541;28;20242;-69
2022/11/28 05:16:08;;;;;;;;;;;23.50;38.90;;;;;;5086231;28;19924;-69
2022/11/28 05:18:34;;;;;;;;;;;23.50;38.20;;;;;;5077143;28;19920;-69
2022/11/28 05:21:00;;;;;;;;;;;23.50;38.30;;;;;;5077408;28;20011;-69
2022/11/28 05:23:26;;;;;;;;;;;23.50;38.40;;;;;;5095210;28;19927;-69
2022/11/28 05:25:51;;;;;;;;;;;23.50;38.40;;;;;;5094759;28;20288;-69
2022/11/28 05:28:17;;;;;;;;;;;23.50;38.40;;;;;;5076914;28;20019;-69
2022/11/28 05:30:42;;;;;;;;;;;23.40;38.40;;;;;;5077023;28;19981;-69
2022/11/28 05:33:08;;;;;;;;;;;23.50;38.60;;;;;;5077154;28;20421;-69
2022/11/28 05:35:33;;;;;;;;;;;23.40;38.50;;;;;;5076836;28;20393;-69
2022/11/28 05:37:58;;;;;;;;;;;23.40;38.60;;;;;;5094907;28;20038;-69
2022/11/28 05:40:24;;;;;;;;;;;23.40;38.60;;;;;;5077037;28;19949;-69
2022/11/28 05:42:50;;;;;;;;;;;23.40;38.60;;;;;;5076905;28;20135;-70
2022/11/28 05:45:15;;;;;;;;;;;23.40;38.70;;;;;;5076592;28;20305;-69
2022/11/28 05:47:41;;;;;;;;;;;23.40;38.70;;;;;;5094252;28;19920;-70
2022/11/28 05:50:06;;;;;;;;;;;23.30;38.70;;;;;;5094655;28;19931;-69
2022/11/28 05:52:32;;;;;;;;;;;23.40;38.70;;;;;;5076702;28;19920;-70
2022/11/28 05:54:59;;;;;;;;;;;23.30;38.70;;;;;;5094610;28;20019;-70
2022/11/28 05:57:24;;;;;;;;;;;23.30;38.70;;;;;;5076605;28;19990;-69
2022/11/28 05:59:50;;;;;;;;;;;23.40;38.80;;;;;;5076386;28;20395;-69
2022/11/28 06:02:15;;;;;;;;;;;23.40;38.70;;;;;;5075564;28;19926;-69
2022/11/28 06:04:41;;;;;;;;;;;23.40;38.70;;;;;;5076078;28;19924;-69
2022/11/28 06:07:07;;;;;;;;;;;23.40;38.70;;;;;;5075985;28;19967;-69
2022/11/28 06:09:32;;;;;;;;;;;23.40;38.70;;;;;;5076378;28;19927;-70
2022/11/28 06:11:58;;;;;;;;;;;23.30;38.70;;;;;;5094040;28;19920;-69
2022/11/28 06:14:23;;;;;;;;;;;23.40;38.70;;;;;;5076543;28;20224;-70
2022/11/28 06:16:49;;;;;;;;;;;23.40;38.80;;;;;;5093329;28;20329;-69
2022/11/28 06:19:15;;;;;;;;;;;23.30;38.70;;;;;;5075725;28;20398;-69
2022/11/28 06:21:40;;;;;;;;;;;23.40;38.80;;;;;;5094237;28;19920;-69
2022/11/28 06:24:06;;;;;;;;;;;23.40;38.90;;;;;;5075382;28;19946;-69
2022/11/28 06:26:31;;;;;;;;;;;23.30;38.80;;;;;;5075918;28;20015;-69
2022/11/28 06:28:57;;;;;;;;;;;23.30;38.80;;;;;;5091758;28;20364;-70
2022/11/28 06:31:26;;;;;;;;;;;23.40;38.90;;;;;;5072650;28;19935;-72
2022/11/28 06:33:51;;;;;;;;;;;23.30;39.20;;;;;;5083572;28;20291;-71
2022/11/28 06:36:18;;;;;;;;;;;23.30;39.50;;;;;;5092679;28;19924;-75
2022/11/28 06:38:43;;;;;;;;;;;23.20;39.80;;;;;;5074689;28;19920;-73
2022/11/28 06:41:10;;;;;;;;;;;23.10;40.10;;;;;;5084938;28;19926;-71
2022/11/28 06:43:35;;;;;;;;;;;23.10;40.50;;;;;;5054798;28;19921;-71
2022/11/28 06:46:01;;;;;;;;;;;23.00;40.80;;;;;;5071454;28;20338;-75
2022/11/28 06:48:27;;;;;;;;;;;22.90;41.00;;;;;;5073812;28;19924;-72
2022/11/28 06:50:52;;;;;;;;;;;22.80;41.20;;;;;;5074128;28;19946;-69
2022/11/28 06:53:18;;;;;;;;;;;22.50;41.60;;;;;;5090810;28;19931;-71
2022/11/28 06:55:44;;;;;;;;;;;22.20;41.80;;;;;;5066665;28;20003;-71
2022/11/28 06:58:10;;;;;;;;;;;22.00;42.30;;;;;;5068577;28;20051;-70
2022/11/28 07:00:36;;;;;;;;;;;21.80;42.70;;;;;;5087499;28;19963;-71
2022/11/28 07:03:01;;;;;;;;;;;21.60;43.10;;;;;;5069299;28;20368;-70
2022/11/28 07:05:27;;;;;;;;;;;21.40;43.50;;;;;;5064933;28;20016;-71
2022/11/28 07:07:53;;;;;;;;;;;21.20;43.90;;;;;;5057861;28;20011;-72
2022/11/28 07:10:19;;;;;;;;;;;21.00;44.30;;;;;;5076555;28;20001;-72
2022/11/28 07:12:45;;;;;;;;;;;20.80;44.50;;;;;;5069555;28;20411;-72
2022/11/28 07:15:11;;;;;;;;;;;20.60;44.80;;;;;;5068194;28;19924;-70
2022/11/28 07:17:38;;;;;;;;;;;20.50;45.30;;;;;;5070504;28;20015;-72
2022/11/28 07:20:04;;;;;;;;;;;20.40;45.60;;;;;;5070767;28;20012;-72
2022/11/28 07:22:30;;;;;;;;;;;20.20;46.00;;;;;;5066419;28;19959;-73
2022/11/28 07:24:56;;;;;;;;;;;20.10;46.20;;;;;;5088411;28;20045;-73
2022/11/28 07:27:21;;;;;;;;;;;20.10;46.40;;;;;;5070798;28;20280;-73
2022/11/28 07:29:47;;;;;;;;;;;20.10;46.50;;;;;;5089390;28;19991;-74
2022/11/28 07:32:12;;;;;;;;;;;20.00;46.80;;;;;;5057559;28;20297;-73
2022/11/28 07:34:40;;;;;;;;;;;19.90;47.00;;;;;;5045454;28;19924;-74
2022/11/28 07:37:05;;;;;;;;;;;19.90;47.30;;;;;;5053188;28;19987;-74
2022/11/28 07:39:31;;;;;;;;;;;19.80;47.50;;;;;;5074057;28;19924;-74
2022/11/28 07:41:56;;;;;;;;;;;19.70;47.60;;;;;;5058613;28;19951;-69
2022/11/28 07:44:22;;;;;;;;;;;19.60;47.70;;;;;;5063226;28;19931;-70
2022/11/28 07:46:47;;;;;;;;;;;19.60;48.00;;;;;;5051282;28;19930;-73
2022/11/28 07:49:13;;;;;;;;;;;19.50;48.40;;;;;;5073361;28;20300;-67
2022/11/28 07:51:39;;;;;;;;;;;19.40;48.70;;;;;;5073513;28;20387;-70
2022/11/28 07:54:05;;;;;;;;;;;19.40;49.20;;;;;;5062650;28;19924;-69
2022/11/28 07:56:32;;;;;;;;;;;19.30;49.40;;;;;;5067794;28;19928;-69
2022/11/28 07:58:58;;;;;;;;;;;19.30;49.70;;;;;;5051105;28;19931;-68
2022/11/28 08:01:25;;;;;;;;;;;19.20;50.00;;;;;;5052203;28;19993;-69
2022/11/28 08:03:51;;;;;;;;;;;19.20;50.30;;;;;;5048199;28;19956;-65
2022/11/28 08:06:18;;;;;;;;;;;19.10;50.50;;;;;;5063668;28;21242;-75
2022/11/28 08:08:45;;;;;;;;;;;19.10;50.80;;;;;;5050928;28;19928;-74
2022/11/28 08:11:11;;;;;;;;;;;19.00;51.20;;;;;;5068307;28;19955;-67
2022/11/28 08:13:38;;;;;;;;;;;19.10;51.70;;;;;;5057897;28;19928;-68
2022/11/28 08:16:06;;;;;;;;;;;19.00;52.10;;;;;;5054419;28;19955;-71
2022/11/28 08:18:32;;;;;;;;;;;18.90;52.10;;;;;;5069112;28;19920;-70
2022/11/28 08:21:03;;;;;;;;;;;18.90;52.40;;;;;;5050323;28;19928;-69
2022/11/28 08:23:28;;;;;;;;;;;18.90;52.60;;;;;;5048369;28;19951;-69
2022/11/28 08:25:54;;;;;;;;;;;18.80;52.60;;;;;;5067040;28;20164;-67
2022/11/28 08:28:19;;;;;;;;;;;18.90;52.90;;;;;;5052801;28;20298;-66
2022/11/28 08:30:45;;;;;;;;;;;18.80;53.00;;;;;;5056003;28;19928;-68
2022/11/28 08:33:10;;;;;;;;;;;18.80;53.30;;;;;;5057231;28;19924;-68
2022/11/28 08:35:38;;;;;;;;;;;18.80;53.50;;;;;;5070970;28;19935;-67
2022/11/28 08:38:03;;;;;;;;;;;18.80;53.60;;;;;;5061716;28;19932;-68
2022/11/28 08:40:29;;;;;;;;;;;18.70;53.70;;;;;;5071381;28;20470;-66
2022/11/28 08:42:54;;;;;;;;;;;18.70;53.80;;;;;;5052991;28;20402;-66
2022/11/28 08:45:20;;;;;;;;;;;18.70;53.90;;;;;;5073014;28;19932;-66
2022/11/28 08:47:45;;;;;;;;;;;18.70;54.00;;;;;;5056765;28;19928;-70
2022/11/28 08:50:11;;;;;;;;;;;18.70;54.20;;;;;;5071895;28;20505;-68
2022/11/28 08:52:36;;;;;;;;;;;18.60;54.30;;;;;;5059866;28;19928;-75
2022/11/28 08:55:02;;;;;;;;;;;18.70;54.60;;;;;;5057440;28;19930;-72
2022/11/28 08:57:27;;;;;;;;;;;18.60;54.90;;;;;;5077814;28;19931;-72
2022/11/28 08:59:53;;;;;;;;;;;18.60;55.10;;;;;;5055412;28;20034;-71
2022/11/28 09:02:18;;;;;;;;;;;18.60;55.30;;;;;;5063822;28;20417;-70
2022/11/28 09:04:44;;;;;;;;;;;18.60;55.40;;;;;;5055027;28;20384;-65
2022/11/28 09:07:09;;;;;;;;;;;18.60;55.60;;;;;;5059959;28;19929;-67
2022/11/28 09:09:35;;;;;;;;;;;18.60;55.60;;;;;;5072976;28;19932;-65
2022/11/28 09:12:00;;;;;;;;;;;18.60;55.60;;;;;;5059734;28;19938;-64
2022/11/28 09:14:26;;;;;;;;;;;18.60;55.60;;;;;;5055907;28;19938;-66
2022/11/28 09:16:51;;;;;;;;;;;18.70;55.40;;;;;;5055891;28;19928;-68
2022/11/28 09:19:17;;;;;;;;;;;18.50;55.50;;;;;;5076011;28;20218;-72
2022/11/28 09:21:42;;;;;;;;;;;18.60;55.50;;;;;;5076192;28;19925;-70
2022/11/28 09:24:08;;;;;;;;;;;18.50;55.50;;;;;;5063178;28;19924;-72
2022/11/28 09:26:34;;;;;;;;;;;18.50;55.80;;;;;;5054408;28;19924;-73
2022/11/28 09:28:59;;;;;;;;;;;18.50;55.90;;;;;;5072424;28;20084;-75
2022/11/28 09:31:24;;;;;;;;;;;18.40;55.70;;;;;;5057609;28;20397;-73
2022/11/28 09:33:50;;;;;;;;;;;18.50;55.70;;;;;;5059967;28;19931;-70
2022/11/28 09:36:17;;;;;;;;;;;18.50;55.60;;;;;;5059684;28;19928;-74
2022/11/28 09:38:43;;;;;;;;;;;18.50;56.40;;;;;;5069590;28;19928;-74
2022/11/28 09:41:28;;;;;;;;;;;18.50;55.70;;;;;;5073507;28;19927;-70
2022/11/28 09:43:56;;;;;;;;;;;18.50;55.90;;;;;;5052809;28;19996;-66
2022/11/28 09:46:27;;;;;;;;;;;18.50;56.20;;;;;;5059862;28;19947;-73
2022/11/28 09:48:54;;;;;;;;;;;18.50;56.50;;;;;;5073264;28;19927;-72
2022/11/28 09:51:30;;;;;;;;;;;18.50;56.50;;;;;;5072576;28;20022;-70
2022/11/28 09:54:15;;;;;;;;;;;18.50;56.50;;;;;;5073151;28;20011;-70
2022/11/28 09:56:43;;;;;;;;;;;18.40;56.70;;;;;;5052075;28;20104;-74
2022/11/28 09:59:15;;;;;;;;;;;18.50;57.10;;;;;;5053934;28;19932;-76
2022/11/28 10:01:47;;;;;;;;;;;18.50;57.30;;;;;;5062798;28;20540;-74
2022/11/28 10:04:18;;;;;;;;;;;18.50;57.40;;;;;;5058153;28;19967;-77
2022/11/28 10:06:48;;;;;;;;;;;18.50;57.50;;;;;;5074003;28;19985;-69
2022/11/28 10:09:22;;;;;;;;;;;18.50;57.80;;;;;;5054851;28;19927;-71
2022/11/28 10:14:42;;;;;;;;;;;18.50;58.20;;;;;;5073000;27;19927;-67
2022/11/28 10:22:36;;;;;;;;;;;18.50;58.40;;;;;;5080803;27;19920;-72
2022/11/28 10:25:05;;;;;;;;;;;18.40;58.20;;;;;;5069090;28;20019;-69
2022/11/28 10:27:33;;;;;;;;;;;18.50;58.10;;;;;;5072835;28;20380;-70
2022/11/28 10:30:19;;;;;;;;;;;18.40;58.00;;;;;;5105418;28;19924;-71
2022/11/28 10:32:50;;;;;;;;;;;18.30;57.80;;;;;;5074166;28;20018;-70
2022/11/28 10:35:35;;;;;;;;;;;18.30;57.70;;;;;;5067962;28;19932;-70
2022/11/28 10:38:01;;;;;;;;;;;18.30;57.60;;;;;;5066220;28;19973;-66
2022/11/28 10:40:46;;;;;;;;;;;18.30;57.90;;;;;;5067182;28;19932;-68
2022/11/28 10:43:25;;;;;;;;;;;18.30;58.10;;;;;;5069669;28;19924;-68
2022/11/28 10:45:59;;;;;;;;;;;18.30;58.30;;;;;;5067871;28;19963;-67
2022/11/28 10:48:33;;;;;;;;;;;18.30;58.30;;;;;;5085849;28;19928;-71
2022/11/28 10:53:49;;;;;;;;;;;18.30;58.30;;;;;;5080020;27;19924;-69
2022/11/28 11:01:39;;;;;;;;;;;18.50;58.10;;;;;;5092542;27;19948;-69
2022/11/28 11:04:08;;;;;;;;;;;18.50;57.90;;;;;;5075212;28;20262;-71
2022/11/28 11:06:33;;;;;;;;;;;18.60;57.90;;;;;;5083034;28;19977;-69
2022/11/28 11:08:59;;;;;;;;;;;18.60;57.90;;;;;;5079603;28;19928;-69
2022/11/28 11:11:26;;;;;;;;;;;18.60;57.80;;;;;;5080940;28;19928;-68
2022/11/28 11:13:57;;;;;;;;;;;18.60;57.70;;;;;;5094475;28;19928;-67
2022/11/28 11:16:22;;;;;;;;;;;18.70;57.50;;;;;;5079162;28;20590;-69
2022/11/28 11:21:29;;;;;;;;;;;18.60;57.40;;;;;;5082541;27;19919;-70
2022/11/28 11:26:48;;;;;;;;;;;18.60;57.90;;;;;;5100696;27;1866148;-69
2022/11/28 11:29:28;;;;;;;;;;;18.70;57.90;;;;;;5152673;27;19915;-68
2022/11/28 11:31:53;;;;;;;;;;;18.50;57.80;;;;;;5146634;27;19976;-69
2022/11/28 11:34:21;;;;;;;;;;;18.50;57.70;;;;;;5137719;27;19922;-69
2022/11/28 11:36:47;;;;;;;;;;;18.40;57.80;;;;;;5135786;27;20173;-69
2022/11/28 11:42:11;;;;;;;;;;;18.30;57.80;;;;;;5113227;27;1863115;-69
2022/11/28 11:44:36;;;;;;;;;;;18.30;57.80;;;;;;5154729;27;19926;-69
2022/11/28 11:49:42;;;;;;;;;;;18.30;57.80;;;;;;5098603;27;1869774;-68
2022/11/28 11:57:26;;;;;;;;;;;18.30;58.20;;;;;;5079256;27;1858474;-68
2022/11/28 11:59:57;;;;;;;;;;;18.20;58.50;;;;;;5115434;27;20047;-67
2022/11/28 12:02:29;;;;;;;;;;;18.20;58.70;;;;;;5119523;27;20281;-70
2022/11/28 12:05:01;;;;;;;;;;;18.30;59.00;;;;;;5116548;27;20315;-72
2022/11/28 12:07:46;;;;;;;;;;;18.30;59.10;;;;;;5115718;27;20006;-69
2022/11/28 12:10:14;;;;;;;;;;;18.30;59.20;;;;;;5119259;27;20042;-70
2022/11/28 12:12:40;;;;;;;;;;;18.20;59.20;;;;;;5105754;27;21450;-69
2022/11/28 12:15:16;;;;;;;;;;;18.20;59.20;;;;;;5113791;27;19928;-70
2022/11/28 12:18:01;;;;;;;;;;;18.20;59.50;;;;;;5112286;27;19926;-70
2022/11/28 12:20:38;;;;;;;;;;;18.30;59.80;;;;;;5116464;27;20184;-71
2022/11/28 12:23:24;;;;;;;;;;;18.30;59.80;;;;;;5115091;27;19926;-69
2022/11/28 12:28:37;;;;;;;;;;;18.30;59.70;;;;;;5130994;27;19920;-71
2022/11/28 12:31:15;;;;;;;;;;;18.30;59.60;;;;;;5094906;27;19974;-71
2022/11/28 12:39:02;;;;;;;;;;;20.20;56.10;;;;;;5049999;27;19928;-67
2022/11/28 12:44:23;;;;;;;;;;;22.10;51.90;;;;;;5076082;27;19942;-68
2022/11/28 12:47:09;;;;;;;;;;;22.70;50.10;;;;;;5073247;28;20386;-68
2022/11/28 12:49:54;;;;;;;;;;;23.30;48.70;;;;;;5070135;28;19928;-70
2022/11/28 12:52:25;;;;;;;;;;;24.00;47.30;;;;;;5072320;28;19924;-70
2022/11/28 13:00:29;;;;;;;;;;;24.70;45.00;;;;;;5074358;27;19943;-68
2022/11/28 13:03:02;;;;;;;;;;;24.70;45.00;;;;;;5099118;27;19929;-64
2022/11/28 13:05:42;;;;;;;;;;;24.80;44.70;;;;;;5107747;27;19944;-64
2022/11/28 13:13:30;;;;;;;;;;;25.00;44.20;;;;;;5062184;28;20244;-69
2022/11/28 13:18:55;;;;;;;;;;;25.40;43.50;;;;;;5079322;27;1923112;-66
2022/11/28 13:24:10;;;;;;;;;;;25.30;43.50;;;;;;5087600;27;19921;-68
2022/11/28 13:26:57;;;;;;;;;;;25.20;43.80;;;;;;5077023;28;20287;-67
2022/11/28 13:32:17;;;;;;;;;;;25.20;44.30;;;;;;5092213;27;19926;-67
2022/11/28 13:34:43;;;;;;;;;;;25.40;44.00;;;;;;5089402;28;19927;-67
2022/11/28 13:39:51;;;;;;;;;;;25.80;43.20;;;;;;5062584;28;19920;-67
2022/11/28 13:42:23;;;;;;;;;;;25.70;43.20;;;;;;5052533;28;19932;-67
2022/11/28 13:47:33;;;;;;;;;;;25.40;43.70;;;;;;5074029;27;20379;-67
2022/11/28 13:50:18;;;;;;;;;;;25.30;44.10;;;;;;5067372;28;21271;-67
2022/11/28 13:52:44;;;;;;;;;;;25.20;44.10;;;;;;5072255;28;20221;-68
2022/11/28 13:55:29;;;;;;;;;;;25.20;44.20;;;;;;5068208;28;20523;-68
2022/11/28 13:57:55;;;;;;;;;;;25.30;44.30;;;;;;5094903;28;20071;-68
2022/11/28 14:00:22;;;;;;;;;;;25.20;44.20;;;;;;5078537;28;19920;-68
2022/11/28 14:02:51;;;;;;;;;;;25.20;44.40;;;;;;5066986;28;19963;-68
2022/11/28 14:05:33;;;;;;;;;;;25.30;44.40;;;;;;5073763;28;20356;-68
2022/11/28 14:07:59;;;;;;;;;;;25.50;44.20;;;;;;5071694;28;20332;-69
2022/11/28 14:16:06;;;;;;;;;;;25.50;43.70;;;;;;5086556;27;19916;-69
2022/11/28 14:18:40;;;;;;;;;;;25.20;43.60;;;;;;5068651;28;20147;-68
2022/11/28 14:23:57;;;;;;;;;;;24.80;43.90;;;;;;5068072;28;20400;-68
2022/11/28 14:29:05;;;;;;;;;;;24.70;44.10;;;;;;5070415;28;20349;-68
2022/11/28 14:31:36;;;;;;;;;;;24.70;44.00;;;;;;5071339;28;19930;-67
2022/11/28 14:34:03;;;;;;;;;;;24.70;43.90;;;;;;5038713;28;19932;-68
2022/11/28 14:39:29;;;;;;;;;;;24.90;43.90;;;;;;5148405;27;19937;-69
2022/11/28 14:42:15;;;;;;;;;;;25.20;43.50;;;;;;5127271;27;19923;-68
2022/11/28 14:44:56;;;;;;;;;;;25.40;43.30;;;;;;5134779;27;20018;-68
2022/11/28 14:52:46;;;;;;;;;;;25.30;43.50;;;;;;5065959;28;19916;-68
2022/11/28 14:55:14;;;;;;;;;;;25.10;43.80;;;;;;5059624;28;19924;-69
2022/11/28 15:03:21;;;;;;;;;;;24.50;45.10;;;;;;5100635;27;1875100;-66
2022/11/28 15:06:07;;;;;;;;;;;24.30;45.70;;;;;;5158094;27;19919;-68
2022/11/28 15:08:52;;;;;;;;;;;24.10;46.20;;;;;;5157223;27;19950;-66
2022/11/28 15:11:26;;;;;;;;;;;23.90;46.70;;;;;;5140992;27;19919;-69
2022/11/28 15:16:41;;;;;;;;;;;23.50;47.60;;;;;;5080834;27;19926;-69
2022/11/28 15:19:12;;;;;;;;;;;23.40;48.10;;;;;;5074473;28;19955;-69
2022/11/28 15:21:42;;;;;;;;;;;23.10;48.40;;;;;;5110708;27;19920;-68
2022/11/28 15:24:28;;;;;;;;;;;23.00;48.90;;;;;;5070716;28;19938;-68
2022/11/28 15:26:56;;;;;;;;;;;22.80;49.30;;;;;;5071876;28;19928;-66
2022/11/28 15:29:22;;;;;;;;;;;22.60;49.80;;;;;;5075741;28;20407;-70
2022/11/28 15:31:50;;;;;;;;;;;22.40;50.10;;;;;;5106398;27;20379;-68
2022/11/28 15:37:05;;;;;;;;;;;22.20;50.90;;;;;;5064917;28;19927;-66
2022/11/28 15:39:33;;;;;;;;;;;22.00;51.30;;;;;;5068887;28;19974;-69
2022/11/28 15:41:59;;;;;;;;;;;21.90;51.70;;;;;;5056566;28;19920;-68
2022/11/28 15:44:25;;;;;;;;;;;21.80;52.00;;;;;;5068640;28;20191;-66
2022/11/28 15:46:51;;;;;;;;;;;21.60;52.40;;;;;;5054248;28;20205;-69
2022/11/28 15:49:22;;;;;;;;;;;21.60;52.40;;;;;;5061647;28;20034;-66
2022/11/28 15:51:50;;;;;;;;;;;21.40;51.90;;;;;;5058291;28;19936;-68
2022/11/28 15:54:25;;;;;;;;;;;21.30;51.90;;;;;;5060329;28;19921;-67
2022/11/28 15:56:56;;;;;;;;;;;21.20;51.90;;;;;;5061026;28;19921;-67
2022/11/28 15:59:21;;;;;;;;;;;21.10;52.20;;;;;;5061922;28;20334;-67
2022/11/28 16:01:47;;;;;;;;;;;21.00;52.30;;;;;;5045529;28;19932;-67
2022/11/28 16:04:14;;;;;;;;;;;20.90;52.40;;;;;;5061864;28;19929;-67
2022/11/28 16:06:41;;;;;;;;;;;20.80;52.40;;;;;;5055916;28;19967;-67
2022/11/28 16:09:23;;;;;;;;;;;20.80;52.60;;;;;;5062008;28;19927;-66
2022/11/28 16:11:50;;;;;;;;;;;20.70;52.70;;;;;;5064705;28;20171;-67
2022/11/28 16:14:20;;;;;;;;;;;20.60;52.80;;;;;;5064330;28;19921;-67
2022/11/28 16:16:45;;;;;;;;;;;20.50;52.90;;;;;;5064208;28;20012;-68
2022/11/28 16:19:31;;;;;;;;;;;20.50;53.00;;;;;;5064018;28;20015;-67
2022/11/28 16:22:01;;;;;;;;;;;20.40;53.10;;;;;;5063004;28;19920;-67
2022/11/28 16:24:29;;;;;;;;;;;20.40;53.20;;;;;;5063500;28;20011;-67